createdAt,value
2023-05-21T00:01:18.433Z,65.47
2023-05-21T00:03:44.809Z,65.48
2023-05-21T00:06:11.105Z,66.23
2023-05-21T00:08:37.280Z,66.70
2023-05-21T00:11:03.428Z,66.02
2023-05-21T00:13:29.572Z,65.14
2023-05-21T00:15:55.744Z,65.21
2023-05-21T00:18:21.941Z,65.15
2023-05-21T00:20:48.090Z,65.34
2023-05-21T00:23:14.234Z,66.01
2023-05-21T00:25:40.388Z,66.19
2023-05-21T00:28:06.644Z,65.99
2023-05-21T00:30:32.810Z,64.82
2023-05-21T00:32:59.103Z,65.67
2023-05-21T00:35:25.326Z,65.35
2023-05-21T00:37:51.450Z,66.03
2023-05-21T00:40:17.589Z,66.45
2023-05-21T00:42:43.729Z,66.70
2023-05-21T00:45:09.879Z,66.88
2023-05-21T00:47:36.142Z,66.39
2023-05-21T00:50:02.345Z,66.61
2023-05-21T00:52:28.528Z,66.75
2023-05-21T00:54:54.690Z,66.83
2023-05-21T00:57:20.829Z,66.56
2023-05-21T00:59:46.989Z,66.43
2023-05-21T01:02:13.198Z,66.57
2023-05-21T01:04:39.352Z,67.08
2023-05-21T01:07:05.485Z,66.51
2023-05-21T01:09:31.656Z,66.28
2023-05-21T01:11:57.817Z,66.74
2023-05-21T01:14:23.949Z,66.48
2023-05-21T01:16:50.228Z,66.75
2023-05-21T01:19:16.506Z,67.06
2023-05-21T01:21:42.708Z,66.60
2023-05-21T01:24:08.870Z,66.28
2023-05-21T01:26:35.097Z,66.59
2023-05-21T01:29:01.263Z,67.16
2023-05-21T01:31:27.490Z,67.38
2023-05-21T01:33:53.702Z,66.89
2023-05-21T01:36:19.942Z,66.91
2023-05-21T01:38:46.101Z,65.71
2023-05-21T01:41:12.248Z,65.28
2023-05-21T01:43:38.394Z,65.66
2023-05-21T01:46:04.577Z,65.95
2023-05-21T01:48:30.744Z,66.06
2023-05-21T01:50:56.882Z,66.39
2023-05-21T01:53:23.048Z,66.34
2023-05-21T01:55:49.211Z,66.08
2023-05-21T01:58:15.359Z,66.18
2023-05-21T02:00:41.517Z,65.93
2023-05-21T02:03:07.760Z,66.72
2023-05-21T02:05:34.018Z,66.79
2023-05-21T02:08:00.276Z,66.27
2023-05-21T02:10:26.441Z,66.14
2023-05-21T02:12:52.593Z,66.42
2023-05-21T02:15:18.836Z,67.28
2023-05-21T02:17:45.028Z,67.28
2023-05-21T02:20:11.181Z,66.92
2023-05-21T02:22:37.341Z,66.32
2023-05-21T02:25:03.510Z,65.62
2023-05-21T02:27:29.672Z,66.01
2023-05-21T02:29:55.825Z,66.36
2023-05-21T02:32:22.039Z,66.80
2023-05-21T02:34:48.196Z,66.80
2023-05-21T02:37:14.390Z,67.21
2023-05-21T02:39:40.525Z,67.88
2023-05-21T02:42:06.693Z,67.79
2023-05-21T02:44:32.856Z,67.64
2023-05-21T02:46:58.998Z,67.42
2023-05-21T02:49:25.159Z,66.82
2023-05-21T02:51:52.506Z,67.54
2023-05-21T02:54:18.652Z,66.93
2023-05-21T02:56:44.802Z,65.73
2023-05-21T02:59:10.950Z,65.62
2023-05-21T03:01:37.119Z,66.01
2023-05-21T03:04:03.307Z,66.35
2023-05-21T03:06:29.545Z,66.78
2023-05-21T03:08:55.688Z,67.24
2023-05-21T03:11:21.909Z,67.20
2023-05-21T03:13:48.109Z,67.17
2023-05-21T03:16:14.295Z,67.53
2023-05-21T03:18:40.502Z,67.24
2023-05-21T03:21:06.658Z,66.34
2023-05-21T03:23:32.819Z,66.86
2023-05-21T03:25:58.972Z,68.23
2023-05-21T03:28:25.101Z,67.31
2023-05-21T03:30:51.258Z,67.00
2023-05-21T03:33:17.421Z,66.74
2023-05-21T03:35:43.609Z,67.23
2023-05-21T03:38:09.751Z,67.24
2023-05-21T03:40:35.881Z,66.40
2023-05-21T03:43:02.038Z,66.17
2023-05-21T03:45:28.212Z,65.49
2023-05-21T03:47:54.373Z,64.21
2023-05-21T03:50:20.589Z,64.11
2023-05-21T03:52:46.756Z,63.98
2023-05-21T03:55:12.906Z,67.53
2023-05-21T03:57:39.038Z,69.13
2023-05-21T04:00:05.218Z,68.74
2023-05-21T04:02:31.458Z,69.11
2023-05-21T04:04:57.810Z,70.04
2023-05-21T04:07:24.016Z,69.88
2023-05-21T04:09:50.174Z,68.06
2023-05-21T04:12:16.334Z,66.71
2023-05-21T04:14:42.506Z,66.38
2023-05-21T04:17:08.672Z,65.70
2023-05-21T04:19:34.982Z,64.95
2023-05-21T04:22:01.156Z,65.60
2023-05-21T04:24:27.293Z,65.31
2023-05-21T04:26:53.457Z,65.76
2023-05-21T04:29:19.610Z,65.69
2023-05-21T04:31:45.812Z,65.96
2023-05-21T04:34:11.983Z,65.90
2023-05-21T04:36:38.113Z,65.87
2023-05-21T04:39:04.245Z,64.87
2023-05-21T04:41:30.382Z,64.39
2023-05-21T04:43:56.534Z,64.22
2023-05-21T04:46:22.744Z,64.35
2023-05-21T04:48:48.969Z,64.33
2023-05-21T04:51:15.141Z,63.40
2023-05-21T04:53:41.289Z,63.97
2023-05-21T04:56:07.450Z,64.26
2023-05-21T04:58:33.649Z,62.92
2023-05-21T05:00:59.785Z,62.46
2023-05-21T05:03:26.019Z,61.97
2023-05-21T05:05:52.226Z,61.84
2023-05-21T05:08:18.390Z,60.97
2023-05-21T05:10:44.569Z,60.69
2023-05-21T05:13:10.716Z,59.94
2023-05-21T05:15:37.197Z,59.24
2023-05-21T05:18:03.657Z,58.20
2023-05-21T05:20:29.953Z,57.16
2023-05-21T05:22:56.109Z,56.30
2023-05-21T05:25:22.246Z,58.80
2023-05-21T05:27:48.433Z,58.83
2023-05-21T05:30:14.588Z,56.89
2023-05-21T05:32:40.774Z,56.68
2023-05-21T05:35:06.956Z,55.80
2023-05-21T05:37:33.139Z,55.09
2023-05-21T05:39:59.278Z,55.98
2023-05-21T05:42:25.429Z,54.81
2023-05-21T05:44:51.570Z,52.78
2023-05-21T05:47:17.704Z,52.82
2023-05-21T05:49:43.848Z,51.42
2023-05-21T05:52:09.999Z,51.61
2023-05-21T05:54:36.162Z,51.49
2023-05-21T05:57:02.305Z,51.77
2023-05-21T05:59:28.441Z,51.71
2023-05-21T06:01:54.615Z,51.49
2023-05-21T06:04:20.765Z,51.79
2023-05-21T06:06:46.908Z,51.34
2023-05-21T06:09:13.067Z,50.52
2023-05-21T06:11:39.196Z,49.74
2023-05-21T06:14:05.342Z,49.77
2023-05-21T06:16:31.744Z,51.97
2023-05-21T06:18:58.114Z,54.14
2023-05-21T06:21:24.291Z,53.35
2023-05-21T06:23:50.449Z,53.41
2023-05-21T06:26:16.637Z,53.35
2023-05-21T06:28:42.761Z,53.23
2023-05-21T06:31:08.909Z,53.04
2023-05-21T06:33:35.124Z,54.17
2023-05-21T06:36:01.351Z,55.81
2023-05-21T06:38:27.512Z,58.97
2023-05-21T06:40:53.654Z,57.65
2023-05-21T06:43:19.817Z,56.93
2023-05-21T06:45:45.985Z,56.80
2023-05-21T06:48:12.199Z,55.79
2023-05-21T06:50:38.411Z,54.96
2023-05-21T06:53:04.586Z,56.16
2023-05-21T06:55:30.732Z,56.46
2023-05-21T06:57:56.864Z,57.24
2023-05-21T07:00:23.021Z,56.68
2023-05-21T07:02:49.287Z,56.77
2023-05-21T07:05:15.468Z,54.91
2023-05-21T07:07:41.623Z,55.82
2023-05-21T07:10:07.855Z,55.13
2023-05-21T07:12:34.020Z,54.67
2023-05-21T07:15:00.173Z,53.46
2023-05-21T07:17:26.375Z,54.47
2023-05-21T07:19:52.595Z,56.60
2023-05-21T07:22:18.747Z,54.64
2023-05-21T07:24:44.904Z,54.68
2023-05-21T07:27:24.771Z,55.03
2023-05-21T07:29:51.749Z,54.30
2023-05-21T07:32:17.910Z,53.01
2023-05-21T07:34:44.079Z,53.07
2023-05-21T07:37:10.376Z,51.85
2023-05-21T07:39:36.545Z,51.17
2023-05-21T07:42:02.681Z,51.16
2023-05-21T07:44:28.829Z,49.42
2023-05-21T07:46:54.976Z,49.07
2023-05-21T07:49:21.126Z,49.67
2023-05-21T07:51:47.272Z,49.72
2023-05-21T07:54:13.425Z,50.85
2023-05-21T07:56:39.567Z,49.88
2023-05-21T07:59:05.706Z,51.14
2023-05-21T08:01:31.871Z,48.86
2023-05-21T08:03:58.150Z,49.19
2023-05-21T08:06:24.449Z,50.11
2023-05-21T08:08:50.621Z,50.66
2023-05-21T08:11:16.769Z,50.89
2023-05-21T08:13:42.925Z,49.30
2023-05-21T08:16:09.109Z,48.98
2023-05-21T08:18:35.298Z,46.94
2023-05-21T08:21:01.511Z,46.92
2023-05-21T08:23:27.688Z,46.93
2023-05-21T08:25:53.827Z,46.51
2023-05-21T08:28:19.960Z,46.00
2023-05-21T08:30:46.119Z,45.55
2023-05-21T08:33:12.342Z,44.91
2023-05-21T08:35:38.759Z,44.86
2023-05-21T08:38:05.048Z,44.44
2023-05-21T08:40:31.212Z,43.52
2023-05-21T08:42:57.340Z,43.92
2023-05-21T08:45:23.476Z,43.53
2023-05-21T08:47:49.818Z,41.94
2023-05-21T08:50:16.003Z,41.16
2023-05-21T08:52:42.200Z,40.61
2023-05-21T08:55:08.447Z,38.68
2023-05-21T08:57:34.611Z,37.87
2023-05-21T09:00:00.765Z,38.14
2023-05-21T09:02:27.038Z,38.80
2023-05-21T09:04:53.231Z,38.64
2023-05-21T09:07:19.389Z,39.05
2023-05-21T09:09:45.536Z,40.09
2023-05-21T09:12:11.680Z,39.11
2023-05-21T09:14:37.832Z,40.40
2023-05-21T09:17:04.099Z,40.78
2023-05-21T09:19:30.391Z,38.59
2023-05-21T09:21:56.565Z,37.49
2023-05-21T09:24:22.736Z,36.68
2023-05-21T09:26:48.920Z,37.01
2023-05-21T09:29:15.114Z,36.94
2023-05-21T09:31:41.417Z,36.16
2023-05-21T09:34:07.613Z,35.06
2023-05-21T09:36:33.795Z,35.27
2023-05-21T09:38:59.963Z,33.62
2023-05-21T09:41:26.149Z,33.08
2023-05-21T09:43:52.309Z,34.53
2023-05-21T09:46:18.478Z,34.15
2023-05-21T09:48:44.668Z,34.00
2023-05-21T09:51:10.815Z,34.10
2023-05-21T09:53:36.973Z,33.52
2023-05-21T09:56:03.296Z,32.76
2023-05-21T09:58:29.457Z,32.55
2023-05-21T10:00:55.651Z,32.19
2023-05-21T10:03:21.803Z,33.43
2023-05-21T10:05:47.977Z,30.93
2023-05-21T10:08:14.137Z,33.45
2023-05-21T10:10:40.267Z,33.09
2023-05-21T10:13:06.420Z,33.97
2023-05-21T10:15:32.576Z,33.47
2023-05-21T10:17:58.745Z,35.21
2023-05-21T10:20:24.921Z,35.08
2023-05-21T10:22:51.071Z,31.38
2023-05-21T10:25:17.232Z,32.86
2023-05-21T10:27:43.379Z,30.92
2023-05-21T10:30:09.546Z,30.05
2023-05-21T10:32:35.796Z,30.90
2023-05-21T10:35:02.118Z,32.02
2023-05-21T10:37:28.690Z,32.12
2023-05-21T10:39:54.865Z,32.65
2023-05-21T10:42:21.027Z,32.91
2023-05-21T10:44:47.168Z,35.24
2023-05-21T10:47:13.344Z,35.10
2023-05-21T10:49:39.500Z,35.01
2023-05-21T10:52:05.638Z,35.81
2023-05-21T10:54:31.790Z,37.08
2023-05-21T10:56:57.940Z,34.45
2023-05-21T10:59:24.190Z,36.16
2023-05-21T11:01:50.477Z,37.91
2023-05-21T11:04:16.641Z,39.47
2023-05-21T11:06:42.796Z,38.02
2023-05-21T11:09:09.077Z,39.44
2023-05-21T11:11:35.213Z,39.79
2023-05-21T11:14:01.344Z,40.63
2023-05-21T11:16:27.512Z,41.24
2023-05-21T11:18:53.837Z,41.53
2023-05-21T11:21:20.030Z,40.79
2023-05-21T11:23:46.186Z,40.67
2023-05-21T11:26:12.353Z,40.40
2023-05-21T11:28:38.505Z,40.70
2023-05-21T11:31:04.660Z,40.73
2023-05-21T11:33:30.801Z,40.83
2023-05-21T11:35:56.976Z,40.78
2023-05-21T11:38:23.126Z,41.94
2023-05-21T11:40:49.276Z,41.24
2023-05-21T11:43:15.476Z,40.83
2023-05-21T11:45:41.639Z,41.75
2023-05-21T11:48:07.866Z,41.94
2023-05-21T11:50:34.131Z,40.98
2023-05-21T11:53:00.387Z,41.06
2023-05-21T11:55:26.539Z,40.38
2023-05-21T11:57:52.711Z,40.57
2023-05-21T12:00:18.878Z,39.90
2023-05-21T12:02:45.681Z,39.34
2023-05-21T12:05:13.214Z,40.73
2023-05-21T12:07:39.494Z,39.71
2023-05-21T12:10:05.657Z,39.98
2023-05-21T12:12:42.197Z,39.61
2023-05-21T12:15:17.929Z,39.98
2023-05-21T12:17:44.098Z,40.26
2023-05-21T12:20:10.308Z,41.12
2023-05-21T12:22:36.457Z,40.64
2023-05-21T12:25:02.589Z,39.94
2023-05-21T12:27:28.739Z,40.32
2023-05-21T12:29:54.896Z,41.21
2023-05-21T12:32:21.112Z,40.49
2023-05-21T12:34:47.342Z,40.51
2023-05-21T12:37:13.509Z,40.17
2023-05-21T12:39:39.642Z,39.99
2023-05-21T12:42:05.776Z,40.52
2023-05-21T12:44:31.948Z,41.06
2023-05-21T12:46:58.106Z,40.37
2023-05-21T12:49:24.255Z,40.06
2023-05-21T12:51:50.415Z,39.47
2023-05-21T12:54:16.544Z,39.16
2023-05-21T12:56:42.702Z,39.93
2023-05-21T12:59:08.866Z,40.12
2023-05-21T13:01:35.033Z,39.25
2023-05-21T13:04:01.291Z,38.58
2023-05-21T13:06:27.480Z,38.88
2023-05-21T13:08:53.610Z,39.07
2023-05-21T13:11:19.764Z,39.65
2023-05-21T13:13:45.890Z,38.36
2023-05-21T13:16:12.101Z,38.17
2023-05-21T13:18:38.263Z,38.13
2023-05-21T13:21:04.416Z,37.64
2023-05-21T13:23:30.558Z,37.98
2023-05-21T13:25:56.722Z,38.89
2023-05-21T13:28:22.867Z,39.61
2023-05-21T13:30:49.012Z,38.20
2023-05-21T13:33:15.268Z,37.68
2023-05-21T13:35:41.464Z,37.24
2023-05-21T13:38:07.664Z,37.36
2023-05-21T13:40:34.126Z,37.59
2023-05-21T13:43:01.156Z,37.73
2023-05-21T13:45:27.326Z,37.48
2023-05-21T13:47:53.500Z,37.33
2023-05-21T13:50:19.697Z,37.64
2023-05-21T13:52:45.872Z,38.17
2023-05-21T13:55:12.069Z,38.19
2023-05-21T13:57:38.461Z,37.75
2023-05-21T14:00:04.687Z,38.36
2023-05-21T14:02:30.926Z,39.44
2023-05-21T14:04:57.105Z,38.32
2023-05-21T14:07:23.270Z,38.93
2023-05-21T14:09:49.475Z,38.60
2023-05-21T14:12:15.657Z,38.80
2023-05-21T14:14:41.835Z,39.35
2023-05-21T14:17:07.992Z,38.93
2023-05-21T14:19:34.571Z,39.49
2023-05-21T14:22:00.771Z,38.91
2023-05-21T14:24:26.952Z,39.27
2023-05-21T14:26:53.091Z,37.96
2023-05-21T14:29:19.252Z,39.87
2023-05-21T14:31:45.459Z,39.27
2023-05-21T14:34:11.666Z,39.11
2023-05-21T14:36:37.838Z,38.08
2023-05-21T14:39:04.011Z,39.62
2023-05-21T14:41:30.219Z,38.67
2023-05-21T14:43:56.516Z,40.94
2023-05-21T14:46:22.815Z,38.06
2023-05-21T14:48:49.494Z,39.10
2023-05-21T14:51:15.674Z,41.21
2023-05-21T14:53:41.838Z,39.20
2023-05-21T14:56:08.010Z,39.86
2023-05-21T14:58:34.185Z,40.81
2023-05-21T15:01:00.366Z,40.26
2023-05-21T15:03:26.752Z,39.91
2023-05-21T15:05:52.933Z,39.74
2023-05-21T15:08:19.177Z,41.95
2023-05-21T15:10:45.322Z,41.72
2023-05-21T15:13:11.470Z,42.00
2023-05-21T15:15:37.859Z,42.06
2023-05-21T15:18:04.299Z,43.05
2023-05-21T15:20:30.489Z,42.04
2023-05-21T15:23:05.068Z,41.05
2023-05-21T15:25:41.930Z,42.65
2023-05-21T15:28:08.076Z,42.14
2023-05-21T15:30:34.247Z,40.70
2023-05-21T15:33:00.564Z,40.61
2023-05-21T15:35:26.886Z,42.08
2023-05-21T15:37:53.222Z,40.91
2023-05-21T15:40:19.389Z,41.76
2023-05-21T15:42:45.546Z,41.28
2023-05-21T15:45:12.005Z,41.49
2023-05-21T15:47:38.497Z,41.57
2023-05-21T15:50:05.466Z,42.46
2023-05-21T15:52:31.638Z,42.43
2023-05-21T15:54:57.810Z,41.80
2023-05-21T15:57:23.963Z,42.16
2023-05-21T15:59:50.098Z,42.45
2023-05-21T16:02:16.271Z,42.08
2023-05-21T16:04:42.417Z,42.59
2023-05-21T16:07:08.558Z,41.80
2023-05-21T16:09:34.733Z,41.59
2023-05-21T16:12:00.906Z,42.37
2023-05-21T16:14:27.044Z,42.21
2023-05-21T16:16:53.236Z,41.65
2023-05-21T16:19:19.452Z,42.75
2023-05-21T16:21:45.641Z,41.34
2023-05-21T16:24:11.771Z,42.04
2023-05-21T16:26:37.917Z,41.74
2023-05-21T16:29:04.062Z,41.37
2023-05-21T16:31:30.382Z,41.56
2023-05-21T16:33:56.562Z,42.36
2023-05-21T16:36:22.715Z,42.05
2023-05-21T16:38:48.874Z,42.41
2023-05-21T16:41:15.000Z,42.94
2023-05-21T16:43:41.174Z,42.48
2023-05-21T16:46:07.338Z,43.10
2023-05-21T16:48:34.068Z,42.71
2023-05-21T16:51:01.268Z,42.46
2023-05-21T16:53:27.414Z,42.90
2023-05-21T16:55:53.576Z,43.49
2023-05-21T16:58:19.726Z,44.25
2023-05-21T17:00:45.947Z,44.23
2023-05-21T17:03:12.200Z,44.24
2023-05-21T17:05:38.681Z,44.48
2023-05-21T17:08:04.952Z,44.31
2023-05-21T17:10:31.093Z,44.64
2023-05-21T17:12:59.781Z,45.25
2023-05-21T17:15:27.932Z,44.63
2023-05-21T17:17:54.134Z,43.93
2023-05-21T17:20:20.373Z,44.68
2023-05-21T17:22:46.559Z,44.25
2023-05-21T17:25:12.738Z,44.57
2023-05-21T17:27:38.891Z,43.78
2023-05-21T17:30:05.085Z,44.00
2023-05-21T17:32:31.270Z,43.58
2023-05-21T17:34:57.518Z,42.45
2023-05-21T17:37:23.688Z,42.41
2023-05-21T17:39:49.854Z,41.57
2023-05-21T17:42:16.003Z,41.58
2023-05-21T17:44:42.193Z,41.58
2023-05-21T17:47:08.472Z,40.63
2023-05-21T17:49:34.702Z,40.34
2023-05-21T17:52:01.020Z,40.53
2023-05-21T17:54:27.161Z,42.63
2023-05-21T17:56:53.320Z,42.97
2023-05-21T17:59:19.562Z,42.43
2023-05-21T18:01:45.720Z,42.43
2023-05-21T18:04:12.073Z,43.11
2023-05-21T18:06:38.425Z,42.60
2023-05-21T18:09:04.575Z,42.72
2023-05-21T18:11:30.727Z,42.57
2023-05-21T18:13:56.864Z,41.86
2023-05-21T18:16:23.034Z,40.98
2023-05-21T18:18:49.227Z,40.90
2023-05-21T18:21:15.385Z,44.90
2023-05-21T18:23:41.666Z,44.30
2023-05-21T18:26:07.829Z,44.08
2023-05-21T18:28:33.994Z,44.48
2023-05-21T18:31:00.167Z,44.64
2023-05-21T18:33:26.300Z,45.49
2023-05-21T18:35:52.433Z,45.34
2023-05-21T18:38:18.566Z,46.41
2023-05-21T18:40:44.706Z,46.90
2023-05-21T18:43:10.878Z,46.86
2023-05-21T18:45:37.059Z,47.62
2023-05-21T18:48:03.347Z,46.77
2023-05-21T18:50:29.575Z,46.97
2023-05-21T18:52:55.749Z,47.26
2023-05-21T18:55:21.885Z,48.05
2023-05-21T18:57:48.060Z,47.77
2023-05-21T19:00:14.277Z,48.09
2023-05-21T19:02:42.249Z,48.22
2023-05-21T19:05:08.447Z,48.38
2023-05-21T19:07:34.631Z,48.90
2023-05-21T19:10:00.827Z,49.35
2023-05-21T19:12:26.998Z,50.04
2023-05-21T19:14:53.154Z,50.62
2023-05-21T19:17:19.305Z,50.76
2023-05-21T19:19:45.458Z,50.95
2023-05-21T19:22:11.613Z,50.99
2023-05-21T19:24:37.772Z,51.92
2023-05-21T19:27:04.188Z,51.45
2023-05-21T19:29:30.342Z,51.36
2023-05-21T19:31:56.505Z,52.25
2023-05-21T19:34:22.748Z,52.44
2023-05-21T19:36:52.979Z,52.07
2023-05-21T19:39:20.104Z,53.19
2023-05-21T19:41:46.235Z,54.01
2023-05-21T19:44:12.388Z,53.85
2023-05-21T19:46:38.585Z,53.69
2023-05-21T19:49:04.733Z,53.29
2023-05-21T19:51:30.888Z,53.32
2023-05-21T19:53:57.057Z,54.15
2023-05-21T19:56:23.205Z,53.63
2023-05-21T19:58:49.382Z,53.22
2023-05-21T20:01:15.552Z,54.00
2023-05-21T20:03:41.717Z,55.09
2023-05-21T20:06:07.896Z,54.86
2023-05-21T20:08:34.070Z,55.02
2023-05-21T20:11:00.233Z,54.77
2023-05-21T20:13:26.409Z,54.93
2023-05-21T20:15:52.649Z,55.39
2023-05-21T20:18:18.846Z,55.80
2023-05-21T20:20:45.021Z,56.05
2023-05-21T20:23:11.218Z,56.74
2023-05-21T20:25:37.416Z,56.59
2023-05-21T20:28:03.613Z,56.73
2023-05-21T20:30:29.812Z,56.56
2023-05-21T20:32:55.978Z,56.79
2023-05-21T20:35:22.219Z,57.19
2023-05-21T20:37:48.374Z,57.41
2023-05-21T20:40:14.998Z,57.09
2023-05-21T20:42:41.283Z,57.72
2023-05-21T20:45:07.440Z,57.88
2023-05-21T20:47:33.648Z,57.46
2023-05-21T20:49:59.839Z,57.63
2023-05-21T20:52:26.308Z,57.90
2023-05-21T20:54:52.486Z,57.73
2023-05-21T20:57:18.657Z,57.85
2023-05-21T20:59:44.823Z,58.09
2023-05-21T21:02:11.023Z,57.58
2023-05-21T21:04:37.201Z,58.53
2023-05-21T21:07:03.362Z,58.68
2023-05-21T21:09:29.513Z,58.50
2023-05-21T21:11:55.728Z,58.66
2023-05-21T21:14:21.884Z,58.58
2023-05-21T21:16:48.064Z,58.53
2023-05-21T21:19:14.284Z,58.45
2023-05-21T21:21:40.501Z,57.74
2023-05-21T21:24:06.662Z,57.51
2023-05-21T21:26:32.839Z,57.61
2023-05-21T21:28:58.993Z,58.14
2023-05-21T21:31:25.163Z,57.33
2023-05-21T21:33:51.561Z,57.85
2023-05-21T21:36:17.796Z,58.80
2023-05-21T21:38:43.927Z,58.66
2023-05-21T21:41:10.101Z,59.51
2023-05-21T21:43:36.251Z,59.37
2023-05-21T21:46:02.429Z,59.50
2023-05-21T21:48:28.661Z,60.04
2023-05-21T21:50:54.834Z,59.39
2023-05-21T21:53:20.991Z,59.18
2023-05-21T21:55:47.165Z,59.73
2023-05-21T21:58:13.343Z,60.50
2023-05-21T22:00:39.610Z,60.87
2023-05-21T22:03:05.963Z,60.44
2023-05-21T22:05:32.116Z,60.13
2023-05-21T22:07:58.285Z,59.41
2023-05-21T22:10:24.445Z,60.04
2023-05-21T22:12:50.654Z,60.97
2023-05-21T22:15:16.804Z,60.77
2023-05-21T22:17:42.977Z,60.81
2023-05-21T22:20:09.216Z,59.66
2023-05-21T22:22:35.355Z,59.12
2023-05-21T22:25:01.514Z,59.84
2023-05-21T22:27:27.689Z,60.82
2023-05-21T22:29:53.841Z,61.60
2023-05-21T22:32:20.053Z,61.91
2023-05-21T22:34:46.209Z,61.73
2023-05-21T22:37:12.388Z,61.66
2023-05-21T22:39:38.618Z,61.59
2023-05-21T22:42:04.793Z,61.82
2023-05-21T22:44:30.963Z,61.97
2023-05-21T22:46:57.133Z,61.87
2023-05-21T22:49:23.329Z,61.61
2023-05-21T22:51:49.483Z,62.05
2023-05-21T22:54:15.639Z,62.06
2023-05-21T22:56:41.769Z,61.62
2023-05-21T22:59:07.926Z,61.68
2023-05-21T23:01:34.078Z,62.44
2023-05-21T23:04:00.292Z,62.51
2023-05-21T23:06:26.449Z,62.25
2023-05-21T23:08:52.582Z,62.01
2023-05-21T23:11:18.721Z,61.99
2023-05-21T23:13:44.859Z,62.22
2023-05-21T23:16:11.054Z,61.82
2023-05-21T23:18:37.244Z,62.42
2023-05-21T23:21:03.463Z,62.29
2023-05-21T23:23:29.716Z,61.77
2023-05-21T23:25:55.868Z,61.86
2023-05-21T23:28:22.036Z,62.73
2023-05-21T23:30:48.197Z,62.42
2023-05-21T23:33:14.453Z,62.87
2023-05-21T23:35:40.667Z,63.15
2023-05-21T23:38:06.845Z,63.19
2023-05-21T23:40:32.999Z,63.27
2023-05-21T23:42:59.177Z,63.33
2023-05-21T23:45:25.433Z,63.50
2023-05-21T23:47:51.692Z,63.82
2023-05-21T23:50:17.846Z,63.94
2023-05-21T23:52:43.985Z,63.87
2023-05-21T23:55:10.127Z,63.82
2023-05-21T23:57:36.268Z,64.00
